Dallas Fort Worth International Airport
KDFW : now visible

Airfield :











YOU CAN JOIN US ON...

 
LOGIN :

Register | Disclaimer

   EN    FR    IT 

 









Legend :    VFR   Marginal VFR   IFR   Intensive IFR   Very Intensive IFR
Visi :
Ceiling :
>= 8 km
>= 3000ft
5 to 8 km
1000 to 3000 ft
1500m to 5 km
500 to 1000 ft
800 to 1500m
200 to 500 ft
< 800m
< 200 ft
Symbols :   Thunderstorms  Fog  Heavy snow  Heavy precipitations  Wind > 20 kt






- Airport Elevation : 607 ft
- IATA code : DFW


KDFW - Dallas Fort Worth International

CURRENT METAR :
  • 082153Z 17006KT 9SM FEW016 BKN250 14/09 A2994 RMK AO2 SLP135 T01390089

EXPIRED METARs :
  • 082110Z 16006KT 8SM SCT015 BKN250 14/09 A2995 RMK AO2 T01390089
  • 082053Z 18006KT 8SM BKN015 BKN250 14/09 A2995 RMK AO2 SLP140 T01390089 56028
  • 082027Z 14005KT 8SM BKN015 13/09 A2996 RMK AO2 T01330089
  • 081953Z 13004KT 7SM OVC012 13/09 A2997 RMK AO2 SLP147 T01280089

TAF KDFW
Valid from the 08 at 21:00 until the 10 at 00:00 UTC


082053Z 0821/0924 14007KT P6SM SCT015
TEMPO 0821/0822 BKN015
FM082200 14005KT P6SM SCT030 BKN250
FM090500 17008KT P6SM SCT250 WS020/20040KT
FM091000 19012KT P6SM BKN015
FM091400 21011G22KT P6SM SCT020 BKN200
KZFW FIR / North America



MET'MAP, your aeronautical weather chart ! - Copyright ORBIFLY December 2007 - Disclaimer

ORBIFLY MET'MAP TEAM :

Programming & Development : Alexandra Zaïnal
Concept & original design : Baudouin d'Aumeries
Assistance for programming : Marc-Olivier Méhu
Technical & hardware support : Manuel Goepfert

Contact : metmap@orbifly.com




SOURCES & CREDITS :

   NOAA       Earth
Advisory